Hovedside
METAR-TAF:

METAR-TAF

Lufthavner :

Pago Pago, USAs ytre småøyer

breddegrad: 14-20S, lengdegrad: 170-43W, høyde over havet: 3 m

Gjeldene værobservasjon

Denne rapporten ble laget for 39 minutter siden, klokken 00:50 UTC
Vind 5 kt fra skiftende retning med vindkast opp mot 19 kt
Temperatur 28°C
Luftfuktighet 84%
Trykk 1010 hPa
Sikt: 12.9 km
Spredte skyer i en høyde av 1500 ft, Tårnskyer (cumulus).
Brutte skyer i en høyde av 4000 ft
Brutte skyer i en høyde av 12000 ft
lette regnbyger

METAR: NSTU 230050Z VRB05G19KT 8SM -SHRA SCT015TCU BKN040 BKN120 28/25 A2983 RMK SHRAB35 TCU ALQDS SLP103 T0276025

Tid: 14:29 (01:29 UTC)

Varsel

Denne rapporten ble laget for 1 time og 42 minutter siden, klokken 23:47 UTC
Varsel gyldig fra 23. klokken 00 UTC til 23. klokken 24 UTC
Vind 11 kt fra Sørøst
Sikt: 10 km
Spredte skyer i en høyde av 1500 ft
Brutte skyer i en høyde av 4000 ft
Brutte skyer i en høyde av 10000 ft
regnbyger i nærheten

TAF: NSTU 222347Z 2300/2324 14011KT P6SM VCSH SCT015 BKN040 BKN100

Værobservasjoner og værvarsel for over 4000 flyplasser (METAR- og TAF-rapporter).

Tilgjengelige stasjoner er representert av de røde og gule prikkene på kartet.

Hold musepekeren over prikken for å se navnet på stasjonen.

Klikk så for å se værobservasjoner og -varsler.

For å forandre kartet kan du klikke på den grønne knappen med svart kryss for å zoome inn, på den grønne knappen med strek for å zoome ut, eller på de grønne pilene for å se tilstøtende kart.


METAR-TAF: